PWSweather.com
Personal Weather Stations
Station Observations
PICKERING
North Yorkshire, PickeringGB

North YorkshirePickeringGB

Lat: 54.2494, Lon: -0.7725

Elevation: 192

Station Type: Oregon Scientific WMR100

http://www.yorkshirewalker.co.uk/weather/

High Low Average
Temperature 73.8°F23.2°C 45.7°F7.6°C 56.8°F13.8°C
Dew Point 57.2°F14.0°C 37.4°F3.0°C 46.2°F7.9°C
Winds 9.7 mph 15.6 kmh Calm Calm 3.0 mph S4.8 kmh S
Wind Gusts 16.6 mph26.7 kmh -- 5.0 mph8.0 kmh
Humidity 83% 51% 68%
Pressure 29.95 in1014.2 mb 29.89 in1012.2 mb -
Precipitation 0.00 in0.0 mm - -
Hour Temp Dew Point Humidity Winds Wind Gusts Pressure Precip Precip Rate Daily Precip Total
12:00 AM 47.1°F8.4°C 42.8°F6.0°C 80% 0.3 mph NNE0.5 kmh NNE 1.1 mph1.8 kmh 29.92 in1013.2 mb 0.00 in0.0 mm 0.00 in0.0 mm 0.00 in0.0 mm
12:05 AM 46.9°F8.3°C 42.8°F6.0°C 80% 0.1 mph NNE0.2 kmh NNE 1.1 mph1.8 kmh 29.92 in1013.2 mb 0.00 in0.0 mm 0.00 in0.0 mm 0.00 in0.0 mm
12:10 AM 46.9°F8.3°C 42.8°F6.0°C 80% Calm Calm -- 29.92 in1013.2 mb 0.00 in0.0 mm 0.00 in0.0 mm 0.00 in0.0 mm
12:15 AM 46.8°F8.2°C 41.0°F5.0°C 80% 0.2 mph NNE0.3 kmh NNE 2.0 mph3.2 kmh 29.92 in1013.2 mb 0.00 in0.0 mm 0.00 in0.0 mm 0.00 in0.0 mm
12:20 AM 46.8°F8.2°C 41.0°F5.0°C 80% 1.2 mph NNE1.9 kmh NNE 2.5 mph4.0 kmh 29.92 in1013.2 mb 0.00 in0.0 mm 0.00 in0.0 mm 0.00 in0.0 mm
12:25 AM 46.6°F8.1°C 41.0°F5.0°C 80% 1.0 mph NNE1.6 kmh NNE 2.5 mph4.0 kmh 29.92 in1013.2 mb 0.00 in0.0 mm 0.00 in0.0 mm 0.00 in0.0 mm
12:30 AM 46.4°F8.0°C 41.0°F5.0°C 80% 0.5 mph NNE0.8 kmh NNE 1.3 mph2.1 kmh 29.92 in1013.2 mb 0.00 in0.0 mm 0.00 in0.0 mm 0.00 in0.0 mm
12:35 AM 46.4°F8.0°C 41.0°F5.0°C 80% 0.7 mph NNE1.1 kmh NNE 1.3 mph2.1 kmh 29.92 in1013.2 mb 0.00 in0.0 mm 0.00 in0.0 mm 0.00 in0.0 mm
12:40 AM 46.4°F8.0°C 41.0°F5.0°C 80% 1.1 mph NNE1.8 kmh NNE 2.5 mph4.0 kmh 29.92 in1013.2 mb 0.00 in0.0 mm 0.00 in0.0 mm 0.00 in0.0 mm
12:45 AM 46.2°F7.9°C 41.0°F5.0°C 80% 0.9 mph NNE1.4 kmh NNE 2.5 mph4.0 kmh 29.92 in1013.2 mb 0.00 in0.0 mm 0.00 in0.0 mm 0.00 in0.0 mm
12:50 AM 46.0°F7.8°C 41.0°F5.0°C 80% 0.2 mph NNE0.3 kmh NNE 1.6 mph2.6 kmh 29.92 in1013.2 mb 0.00 in0.0 mm 0.00 in0.0 mm 0.00 in0.0 mm
12:55 AM 45.9°F7.7°C 41.0°F5.0°C 80% 0.5 mph NNE0.8 kmh NNE 1.6 mph2.6 kmh 29.92 in1013.2 mb 0.00 in0.0 mm 0.00 in0.0 mm 0.00 in0.0 mm
01:00 AM 45.7°F7.6°C 41.0°F5.0°C 80% 0.5 mph NNE0.8 kmh NNE 1.6 mph2.6 kmh 29.92 in1013.2 mb 0.00 in0.0 mm 0.00 in0.0 mm 0.00 in0.0 mm
01:05 AM 45.7°F7.6°C 41.0°F5.0°C 80% 0.4 mph NNE0.6 kmh NNE 2.0 mph3.2 kmh 29.92 in1013.2 mb 0.00 in0.0 mm 0.00 in0.0 mm 0.00 in0.0 mm
01:10 AM 45.7°F7.6°C 41.0°F5.0°C 80% 0.7 mph NNE1.1 kmh NNE 2.0 mph3.2 kmh 29.92 in1013.2 mb 0.00 in0.0 mm 0.00 in0.0 mm 0.00 in0.0 mm
01:15 AM 45.7°F7.6°C 41.0°F5.0°C 80% 1.1 mph NNE1.8 kmh NNE 2.7 mph4.3 kmh 29.92 in1013.2 mb 0.00 in0.0 mm 0.00 in0.0 mm 0.00 in0.0 mm
01:20 AM 45.7°F7.6°C 41.0°F5.0°C 80% 1.8 mph NNE2.9 kmh NNE 2.9 mph4.7 kmh 29.92 in1013.2 mb 0.00 in0.0 mm 0.00 in0.0 mm 0.00 in0.0 mm
01:25 AM 45.9°F7.7°C 41.0°F5.0°C 80% 2.1 mph NNE3.4 kmh NNE 2.9 mph4.7 kmh 29.92 in1013.2 mb 0.00 in0.0 mm 0.00 in0.0 mm 0.00 in0.0 mm
01:30 AM 45.9°F7.7°C 41.0°F5.0°C 80% 2.1 mph NNE3.4 kmh NNE 3.1 mph5.0 kmh 29.92 in1013.2 mb 0.00 in0.0 mm 0.00 in0.0 mm 0.00 in0.0 mm
01:35 AM 45.9°F7.7°C 41.0°F5.0°C 80% 2.4 mph NNE3.9 kmh NNE 3.1 mph5.0 kmh 29.92 in1013.2 mb 0.00 in0.0 mm 0.00 in0.0 mm 0.00 in0.0 mm
01:40 AM 45.7°F7.6°C 41.0°F5.0°C 80% 2.0 mph NNE3.2 kmh NNE 3.1 mph5.0 kmh 29.92 in1013.2 mb 0.00 in0.0 mm 0.00 in0.0 mm 0.00 in0.0 mm
01:45 AM 45.7°F7.6°C 41.0°F5.0°C 80% 1.4 mph NNE2.3 kmh NNE 2.2 mph3.5 kmh 29.92 in1013.2 mb 0.00 in0.0 mm 0.00 in0.0 mm 0.00 in0.0 mm
01:50 AM 46.0°F7.8°C 41.0°F5.0°C 81% 1.5 mph NNE2.4 kmh NNE 2.7 mph4.3 kmh 29.92 in1013.2 mb 0.00 in0.0 mm 0.00 in0.0 mm 0.00 in0.0 mm
01:55 AM 46.0°F7.8°C 41.0°F5.0°C 81% 1.8 mph NNE2.9 kmh NNE 2.7 mph4.3 kmh 29.92 in1013.2 mb 0.00 in0.0 mm 0.00 in0.0 mm 0.00 in0.0 mm
02:00 AM 46.0°F7.8°C 41.0°F5.0°C 81% 1.8 mph NNE2.9 kmh NNE 2.5 mph4.0 kmh 29.92 in1013.2 mb 0.00 in0.0 mm 0.00 in0.0 mm 0.00 in0.0 mm
02:05 AM 46.2°F7.9°C 41.0°F5.0°C 81% 1.5 mph NNE2.4 kmh NNE 2.0 mph3.2 kmh 29.92 in1013.2 mb 0.00 in0.0 mm 0.00 in0.0 mm 0.00 in0.0 mm
02:10 AM 46.2°F7.9°C 41.0°F5.0°C 81% 1.1 mph NNE1.8 kmh NNE 2.0 mph3.2 kmh 29.92 in1013.2 mb 0.00 in0.0 mm 0.00 in0.0 mm 0.00 in0.0 mm
02:15 AM 46.2°F7.9°C 41.0°F5.0°C 81% 1.2 mph NNE1.9 kmh NNE 2.0 mph3.2 kmh 29.92 in1013.2 mb 0.00 in0.0 mm 0.00 in0.0 mm 0.00 in0.0 mm
02:20 AM 46.4°F8.0°C 41.0°F5.0°C 81% 0.8 mph NNE1.3 kmh NNE 1.6 mph2.6 kmh 29.92 in1013.2 mb 0.00 in0.0 mm 0.00 in0.0 mm 0.00 in0.0 mm
02:25 AM 46.4°F8.0°C 41.0°F5.0°C 81% 1.1 mph NNE1.8 kmh NNE 2.2 mph3.5 kmh 29.92 in1013.2 mb 0.00 in0.0 mm 0.00 in0.0 mm 0.00 in0.0 mm
02:30 AM 46.6°F8.1°C 41.0°F5.0°C 81% 1.1 mph NNE1.8 kmh NNE 2.2 mph3.5 kmh 29.92 in1013.2 mb 0.00 in0.0 mm 0.00 in0.0 mm 0.00 in0.0 mm
02:35 AM 46.6°F8.1°C 41.0°F5.0°C 81% 0.6 mph NNE1.0 kmh NNE 1.1 mph1.8 kmh 29.92 in1013.2 mb 0.00 in0.0 mm 0.00 in0.0 mm 0.00 in0.0 mm
02:40 AM 46.6°F8.1°C 41.0°F5.0°C 81% 0.1 mph NNE0.2 kmh NNE 0.9 mph1.4 kmh 29.92 in1013.2 mb 0.00 in0.0 mm 0.00 in0.0 mm 0.00 in0.0 mm
02:45 AM 46.6°F8.1°C 41.0°F5.0°C 81% 0.1 mph NNE0.2 kmh NNE 0.9 mph1.4 kmh 29.92 in1013.2 mb 0.00 in0.0 mm 0.00 in0.0 mm 0.00 in0.0 mm
02:50 AM 46.8°F8.2°C 41.0°F5.0°C 81% Calm Calm -- 29.92 in1013.2 mb 0.00 in0.0 mm 0.00 in0.0 mm 0.00 in0.0 mm
02:55 AM 46.8°F8.2°C 42.8°F6.0°C 82% 0.3 mph NW0.5 kmh NW 1.6 mph2.6 kmh 29.92 in1013.2 mb 0.00 in0.0 mm 0.00 in0.0 mm 0.00 in0.0 mm
03:00 AM 46.8°F8.2°C 42.8°F6.0°C 82% 0.6 mph NW1.0 kmh NW 1.6 mph2.6 kmh 29.92 in1013.2 mb 0.00 in0.0 mm 0.00 in0.0 mm 0.00 in0.0 mm
03:05 AM 46.8°F8.2°C 42.8°F6.0°C 82% 1.3 mph N2.1 kmh N 2.9 mph4.7 kmh 29.92 in1013.2 mb 0.00 in0.0 mm 0.00 in0.0 mm 0.00 in0.0 mm
03:10 AM 46.8°F8.2°C 42.8°F6.0°C 82% 1.3 mph NNE2.1 kmh NNE 2.9 mph4.7 kmh 29.92 in1013.2 mb 0.00 in0.0 mm 0.00 in0.0 mm 0.00 in0.0 mm
03:15 AM 46.8°F8.2°C 42.8°F6.0°C 82% 1.2 mph NNE1.9 kmh NNE 2.5 mph4.0 kmh 29.92 in1013.2 mb 0.00 in0.0 mm 0.00 in0.0 mm 0.00 in0.0 mm
03:20 AM 46.9°F8.3°C 42.8°F6.0°C 82% 1.2 mph NNE1.9 kmh NNE 2.5 mph4.0 kmh 29.92 in1013.2 mb 0.00 in0.0 mm 0.00 in0.0 mm 0.00 in0.0 mm
03:25 AM 46.9°F8.3°C 42.8°F6.0°C 82% 0.5 mph NNE0.8 kmh NNE 1.6 mph2.6 kmh 29.89 in1012.2 mb 0.00 in0.0 mm 0.00 in0.0 mm 0.00 in0.0 mm
03:30 AM 46.9°F8.3°C 42.8°F6.0°C 82% 0.3 mph NNE0.5 kmh NNE 1.6 mph2.6 kmh 29.89 in1012.2 mb 0.00 in0.0 mm 0.00 in0.0 mm 0.00 in0.0 mm
03:35 AM 46.9°F8.3°C 42.8°F6.0°C 82% 0.2 mph NNE0.3 kmh NNE 1.6 mph2.6 kmh 29.89 in1012.2 mb 0.00 in0.0 mm 0.00 in0.0 mm 0.00 in0.0 mm
03:40 AM 46.9°F8.3°C 42.8°F6.0°C 82% Calm Calm -- 29.89 in1012.2 mb 0.00 in0.0 mm 0.00 in0.0 mm 0.00 in0.0 mm
03:45 AM 47.1°F8.4°C 42.8°F6.0°C 82% Calm Calm -- 29.89 in1012.2 mb 0.00 in0.0 mm 0.00 in0.0 mm 0.00 in0.0 mm
03:50 AM 47.1°F8.4°C 42.8°F6.0°C 82% Calm Calm -- 29.89 in1012.2 mb 0.00 in0.0 mm 0.00 in0.0 mm 0.00 in0.0 mm
03:55 AM 47.1°F8.4°C 42.8°F6.0°C 82% Calm Calm -- 29.89 in1012.2 mb 0.00 in0.0 mm 0.00 in0.0 mm 0.00 in0.0 mm
04:00 AM 47.1°F8.4°C 42.8°F6.0°C 82% Calm Calm -- 29.89 in1012.2 mb 0.00 in0.0 mm 0.00 in0.0 mm 0.00 in0.0 mm
04:05 AM 47.1°F8.4°C 42.8°F6.0°C 82% Calm Calm -- 29.89 in1012.2 mb 0.00 in0.0 mm 0.00 in0.0 mm 0.00 in0.0 mm
04:10 AM 47.1°F8.4°C 42.8°F6.0°C 83% Calm Calm -- 29.92 in1013.2 mb 0.00 in0.0 mm 0.00 in0.0 mm 0.00 in0.0 mm
04:15 AM 47.1°F8.4°C 42.8°F6.0°C 82% Calm Calm -- 29.92 in1013.2 mb 0.00 in0.0 mm 0.00 in0.0 mm 0.00 in0.0 mm
04:20 AM 46.9°F8.3°C 42.8°F6.0°C 82% 0.4 mph NNE0.6 kmh NNE 1.6 mph2.6 kmh 29.92 in1013.2 mb 0.00 in0.0 mm 0.00 in0.0 mm 0.00 in0.0 mm
04:25 AM 47.1°F8.4°C 42.8°F6.0°C 82% 0.4 mph NNE0.6 kmh NNE 1.6 mph2.6 kmh 29.89 in1012.2 mb 0.00 in0.0 mm 0.00 in0.0 mm 0.00 in0.0 mm
04:30 AM 47.1°F8.4°C 42.8°F6.0°C 83% 0.4 mph NNE0.6 kmh NNE 2.0 mph3.2 kmh 29.89 in1012.2 mb 0.00 in0.0 mm 0.00 in0.0 mm 0.00 in0.0 mm
04:35 AM 47.1°F8.4°C 42.8°F6.0°C 83% 0.3 mph NNE0.5 kmh NNE 2.0 mph3.2 kmh 29.89 in1012.2 mb 0.00 in0.0 mm 0.00 in0.0 mm 0.00 in0.0 mm
04:40 AM 47.1°F8.4°C 42.8°F6.0°C 82% 0.3 mph NNE0.5 kmh NNE 2.0 mph3.2 kmh 29.89 in1012.2 mb 0.00 in0.0 mm 0.00 in0.0 mm 0.00 in0.0 mm
04:45 AM 47.1°F8.4°C 42.8°F6.0°C 82% Calm Calm -- 29.89 in1012.2 mb 0.00 in0.0 mm 0.00 in0.0 mm 0.00 in0.0 mm
04:50 AM 47.1°F8.4°C 42.8°F6.0°C 82% Calm Calm -- 29.89 in1012.2 mb 0.00 in0.0 mm 0.00 in0.0 mm 0.00 in0.0 mm
04:55 AM 47.1°F8.4°C 42.8°F6.0°C 82% Calm Calm -- 29.92 in1013.2 mb 0.00 in0.0 mm 0.00 in0.0 mm 0.00 in0.0 mm
05:00 AM 47.3°F8.5°C 42.8°F6.0°C 83% Calm Calm -- 29.92 in1013.2 mb 0.00 in0.0 mm 0.00 in0.0 mm 0.00 in0.0 mm
05:05 AM 47.3°F8.5°C 42.8°F6.0°C 83% Calm Calm -- 29.92 in1013.2 mb 0.00 in0.0 mm 0.00 in0.0 mm 0.00 in0.0 mm
05:10 AM 47.3°F8.5°C 42.8°F6.0°C 83% 0.2 mph NNE0.3 kmh NNE 0.9 mph1.4 kmh 29.92 in1013.2 mb 0.00 in0.0 mm 0.00 in0.0 mm 0.00 in0.0 mm
05:15 AM 47.1°F8.4°C 42.8°F6.0°C 83% 0.2 mph NNE0.3 kmh NNE 0.9 mph1.4 kmh 29.92 in1013.2 mb 0.00 in0.0 mm 0.00 in0.0 mm 0.00 in0.0 mm
05:20 AM 47.1°F8.4°C 42.8°F6.0°C 83% Calm Calm -- 29.92 in1013.2 mb 0.00 in0.0 mm 0.00 in0.0 mm 0.00 in0.0 mm
05:25 AM 47.3°F8.5°C 42.8°F6.0°C 83% Calm Calm -- 29.92 in1013.2 mb 0.00 in0.0 mm 0.00 in0.0 mm 0.00 in0.0 mm
05:30 AM 47.3°F8.5°C 42.8°F6.0°C 83% Calm Calm -- 29.92 in1013.2 mb 0.00 in0.0 mm 0.00 in0.0 mm 0.00 in0.0 mm
05:35 AM 47.5°F8.6°C 42.8°F6.0°C 83% Calm Calm -- 29.92 in1013.2 mb 0.00 in0.0 mm 0.00 in0.0 mm 0.00 in0.0 mm
05:40 AM 47.7°F8.7°C 42.8°F6.0°C 83% Calm Calm -- 29.92 in1013.2 mb 0.00 in0.0 mm 0.00 in0.0 mm 0.00 in0.0 mm
05:45 AM 47.7°F8.7°C 42.8°F6.0°C 83% 0.3 mph NNE0.5 kmh NNE 1.3 mph2.1 kmh 29.92 in1013.2 mb 0.00 in0.0 mm 0.00 in0.0 mm 0.00 in0.0 mm
05:50 AM 47.8°F8.8°C 42.8°F6.0°C 83% 0.7 mph NNE1.1 kmh NNE 1.6 mph2.6 kmh 29.92 in1013.2 mb 0.00 in0.0 mm 0.00 in0.0 mm 0.00 in0.0 mm
05:55 AM 47.8°F8.8°C 42.8°F6.0°C 83% 0.4 mph NNE0.6 kmh NNE 1.6 mph2.6 kmh 29.92 in1013.2 mb 0.00 in0.0 mm 0.00 in0.0 mm 0.00 in0.0 mm
06:00 AM 47.8°F8.8°C 42.8°F6.0°C 83% Calm Calm -- 29.92 in1013.2 mb 0.00 in0.0 mm 0.00 in0.0 mm 0.00 in0.0 mm
06:05 AM 48.0°F8.9°C 42.8°F6.0°C 83% Calm Calm -- 29.92 in1013.2 mb 0.00 in0.0 mm 0.00 in0.0 mm 0.00 in0.0 mm
06:10 AM 47.8°F8.8°C 42.8°F6.0°C 83% Calm Calm -- 29.92 in1013.2 mb 0.00 in0.0 mm 0.00 in0.0 mm 0.00 in0.0 mm
06:15 AM 48.2°F9.0°C 42.8°F6.0°C 83% Calm Calm -- 29.92 in1013.2 mb 0.00 in0.0 mm 0.00 in0.0 mm 0.00 in0.0 mm
06:20 AM 48.2°F9.0°C 42.8°F6.0°C 83% Calm Calm -- 29.92 in1013.2 mb 0.00 in0.0 mm 0.00 in0.0 mm 0.00 in0.0 mm
06:25 AM 48.4°F9.1°C 42.8°F6.0°C 83% Calm Calm -- 29.92 in1013.2 mb 0.00 in0.0 mm 0.00 in0.0 mm 0.00 in0.0 mm
06:30 AM 48.6°F9.2°C 44.6°F7.0°C 83% 0.1 mph SW0.2 kmh SW 1.3 mph2.1 kmh 29.92 in1013.2 mb 0.00 in0.0 mm 0.00 in0.0 mm 0.00 in0.0 mm
06:35 AM 48.7°F9.3°C 44.6°F7.0°C 83% 0.6 mph WSW1.0 kmh WSW 2.0 mph3.2 kmh 29.92 in1013.2 mb 0.00 in0.0 mm 0.00 in0.0 mm 0.00 in0.0 mm
06:40 AM 48.7°F9.3°C 44.6°F7.0°C 83% 1.3 mph WSW2.1 kmh WSW 2.2 mph3.5 kmh 29.92 in1013.2 mb 0.00 in0.0 mm 0.00 in0.0 mm 0.00 in0.0 mm
06:45 AM 48.9°F9.4°C 44.6°F7.0°C 83% 1.8 mph WSW2.9 kmh WSW 2.5 mph4.0 kmh 29.92 in1013.2 mb 0.00 in0.0 mm 0.00 in0.0 mm 0.00 in0.0 mm
06:50 AM 49.1°F9.5°C 44.6°F7.0°C 82% 2.0 mph WSW3.2 kmh WSW 2.9 mph4.7 kmh 29.92 in1013.2 mb 0.00 in0.0 mm 0.00 in0.0 mm 0.00 in0.0 mm
06:55 AM 49.3°F9.6°C 44.6°F7.0°C 82% 2.4 mph WSW3.9 kmh WSW 3.4 mph5.5 kmh 29.92 in1013.2 mb 0.00 in0.0 mm 0.00 in0.0 mm 0.00 in0.0 mm
07:00 AM 49.5°F9.7°C 44.6°F7.0°C 82% 2.2 mph WSW3.5 kmh WSW 3.4 mph5.5 kmh 29.92 in1013.2 mb 0.00 in0.0 mm 0.00 in0.0 mm 0.00 in0.0 mm
07:05 AM 49.8°F9.9°C 44.6°F7.0°C 82% 1.4 mph WSW2.3 kmh WSW 3.1 mph5.0 kmh 29.92 in1013.2 mb 0.00 in0.0 mm 0.00 in0.0 mm 0.00 in0.0 mm
07:10 AM 50.2°F10.1°C 44.6°F7.0°C 81% 1.9 mph WSW3.1 kmh WSW 3.6 mph5.8 kmh 29.92 in1013.2 mb 0.00 in0.0 mm 0.00 in0.0 mm 0.00 in0.0 mm
07:15 AM 50.7°F10.4°C 44.6°F7.0°C 81% 2.9 mph WSW4.7 kmh WSW 4.0 mph6.4 kmh 29.92 in1013.2 mb 0.00 in0.0 mm 0.00 in0.0 mm 0.00 in0.0 mm
07:20 AM 51.3°F10.7°C 46.4°F8.0°C 81% 2.9 mph W4.7 kmh W 4.0 mph6.4 kmh 29.92 in1013.2 mb 0.00 in0.0 mm 0.00 in0.0 mm 0.00 in0.0 mm
07:25 AM 51.8°F11.0°C 46.4°F8.0°C 81% 2.1 mph WSW3.4 kmh WSW 3.6 mph5.8 kmh 29.92 in1013.2 mb 0.00 in0.0 mm 0.00 in0.0 mm 0.00 in0.0 mm
07:30 AM 52.2°F11.2°C 48.2°F9.0°C 82% 1.8 mph WSW2.9 kmh WSW 3.6 mph5.8 kmh 29.92 in1013.2 mb 0.00 in0.0 mm 0.00 in0.0 mm 0.00 in0.0 mm
07:35 AM 52.3°F11.3°C 48.2°F9.0°C 82% 1.7 mph WSW2.7 kmh WSW 3.8 mph6.1 kmh 29.92 in1013.2 mb 0.00 in0.0 mm 0.00 in0.0 mm 0.00 in0.0 mm
07:40 AM 52.7°F11.5°C 48.2°F9.0°C 82% 1.5 mph WSW2.4 kmh WSW 3.8 mph6.1 kmh 29.92 in1013.2 mb 0.00 in0.0 mm 0.00 in0.0 mm 0.00 in0.0 mm
07:45 AM 52.9°F11.6°C 48.2°F9.0°C 83% 1.4 mph WSW2.3 kmh WSW 3.8 mph6.1 kmh 29.92 in1013.2 mb 0.00 in0.0 mm 0.00 in0.0 mm 0.00 in0.0 mm
07:50 AM 53.6°F12.0°C 48.2°F9.0°C 82% 2.0 mph W3.2 kmh W 4.3 mph6.9 kmh 29.92 in1013.2 mb 0.00 in0.0 mm 0.00 in0.0 mm 0.00 in0.0 mm
07:55 AM 53.8°F12.1°C 48.2°F9.0°C 82% 2.8 mph W4.5 kmh W 4.3 mph6.9 kmh 29.92 in1013.2 mb 0.00 in0.0 mm 0.00 in0.0 mm 0.00 in0.0 mm
08:00 AM 54.3°F12.4°C 48.2°F9.0°C 81% 3.4 mph WSW5.5 kmh WSW 4.7 mph7.6 kmh 29.92 in1013.2 mb 0.00 in0.0 mm 0.00 in0.0 mm 0.00 in0.0 mm
08:05 AM 54.9°F12.7°C 50.0°F10.0°C 81% 3.0 mph WSW4.8 kmh WSW 4.7 mph7.6 kmh 29.92 in1013.2 mb 0.00 in0.0 mm 0.00 in0.0 mm 0.00 in0.0 mm
08:10 AM 55.4°F13.0°C 50.0°F10.0°C 81% 2.5 mph WSW4.0 kmh WSW 3.6 mph5.8 kmh 29.92 in1013.2 mb 0.00 in0.0 mm 0.00 in0.0 mm 0.00 in0.0 mm
08:15 AM 55.9°F13.3°C 50.0°F10.0°C 81% 3.2 mph WSW5.1 kmh WSW 4.9 mph7.9 kmh 29.92 in1013.2 mb 0.00 in0.0 mm 0.00 in0.0 mm 0.00 in0.0 mm
08:20 AM 56.3°F13.5°C 51.8°F11.0°C 81% 3.2 mph WSW5.1 kmh WSW 4.9 mph7.9 kmh 29.92 in1013.2 mb 0.00 in0.0 mm 0.00 in0.0 mm 0.00 in0.0 mm
08:25 AM 56.5°F13.6°C 51.8°F11.0°C 81% 2.2 mph WSW3.5 kmh WSW 3.8 mph6.1 kmh 29.92 in1013.2 mb 0.00 in0.0 mm 0.00 in0.0 mm 0.00 in0.0 mm
08:30 AM 57.6°F14.2°C 51.8°F11.0°C 81% 2.4 mph WSW3.9 kmh WSW 6.0 mph9.7 kmh 29.92 in1013.2 mb 0.00 in0.0 mm 0.00 in0.0 mm 0.00 in0.0 mm
08:35 AM 58.1°F14.5°C 53.6°F12.0°C 80% 2.7 mph WSW4.3 kmh WSW 6.0 mph9.7 kmh 29.92 in1013.2 mb 0.00 in0.0 mm 0.00 in0.0 mm 0.00 in0.0 mm
08:40 AM 58.6°F14.8°C 53.6°F12.0°C 80% 1.9 mph SW3.1 kmh SW 6.0 mph9.7 kmh 29.92 in1013.2 mb 0.00 in0.0 mm 0.00 in0.0 mm 0.00 in0.0 mm
08:45 AM 58.6°F14.8°C 51.8°F11.0°C 79% 2.7 mph W4.3 kmh W 6.0 mph9.7 kmh 29.92 in1013.2 mb 0.00 in0.0 mm 0.00 in0.0 mm 0.00 in0.0 mm
08:50 AM 59.2°F15.1°C 53.6°F12.0°C 79% 3.7 mph W6.0 kmh W 6.0 mph9.7 kmh 29.92 in1013.2 mb 0.00 in0.0 mm 0.00 in0.0 mm 0.00 in0.0 mm
08:55 AM 59.7°F15.4°C 53.6°F12.0°C 79% 3.9 mph W6.3 kmh W 6.3 mph10.1 kmh 29.92 in1013.2 mb 0.00 in0.0 mm 0.00 in0.0 mm 0.00 in0.0 mm
09:00 AM 59.2°F15.1°C 51.8°F11.0°C 78% 4.0 mph W6.4 kmh W 6.3 mph10.1 kmh 29.92 in1013.2 mb 0.00 in0.0 mm 0.00 in0.0 mm 0.00 in0.0 mm
09:05 AM 60.1°F15.6°C 53.6°F12.0°C 78% 5.6 mph W9.0 kmh W 10.1 mph16.3 kmh 29.92 in1013.2 mb 0.00 in0.0 mm 0.00 in0.0 mm 0.00 in0.0 mm
09:10 AM 61.2°F16.2°C 55.4°F13.0°C 77% 5.5 mph WSW8.9 kmh WSW 10.1 mph16.3 kmh 29.92 in1013.2 mb 0.00 in0.0 mm 0.00 in0.0 mm 0.00 in0.0 mm
09:15 AM 62.1°F16.7°C 55.4°F13.0°C 75% 4.1 mph W6.6 kmh W 6.3 mph10.1 kmh 29.92 in1013.2 mb 0.00 in0.0 mm 0.00 in0.0 mm 0.00 in0.0 mm
09:20 AM 61.7°F16.5°C 55.4°F13.0°C 75% 3.8 mph W6.1 kmh W 6.3 mph10.1 kmh 29.92 in1013.2 mb 0.00 in0.0 mm 0.00 in0.0 mm 0.00 in0.0 mm
09:25 AM 61.5°F16.4°C 53.6°F12.0°C 74% 4.6 mph W7.4 kmh W 8.1 mph13.0 kmh 29.92 in1013.2 mb 0.00 in0.0 mm 0.00 in0.0 mm 0.00 in0.0 mm
09:30 AM 60.8°F16.0°C 53.6°F12.0°C 74% 5.5 mph WNW8.9 kmh WNW 8.1 mph13.0 kmh 29.92 in1013.2 mb 0.00 in0.0 mm 0.00 in0.0 mm 0.00 in0.0 mm
09:35 AM 62.8°F17.1°C 53.6°F12.0°C 72% 5.2 mph WNW8.4 kmh WNW 8.1 mph13.0 kmh 29.92 in1013.2 mb 0.00 in0.0 mm 0.00 in0.0 mm 0.00 in0.0 mm
09:40 AM 64.0°F17.8°C 53.6°F12.0°C 70% 5.2 mph W8.4 kmh W 7.4 mph11.9 kmh 29.95 in1014.2 mb 0.00 in0.0 mm 0.00 in0.0 mm 0.00 in0.0 mm
09:45 AM 64.4°F18.0°C 53.6°F12.0°C 69% 5.4 mph WNW8.7 kmh WNW 7.6 mph12.2 kmh 29.95 in1014.2 mb 0.00 in0.0 mm 0.00 in0.0 mm 0.00 in0.0 mm
09:50 AM 63.7°F17.6°C 55.4°F13.0°C 71% 5.1 mph WNW8.2 kmh WNW 8.5 mph13.7 kmh 29.95 in1014.2 mb 0.00 in0.0 mm 0.00 in0.0 mm 0.00 in0.0 mm
09:55 AM 65.7°F18.7°C 55.4°F13.0°C 68% 4.6 mph W7.4 kmh W 8.5 mph13.7 kmh 29.92 in1013.2 mb 0.00 in0.0 mm 0.00 in0.0 mm 0.00 in0.0 mm
10:00 AM 64.4°F18.0°C 53.6°F12.0°C 69% 5.4 mph W8.7 kmh W 8.5 mph13.7 kmh 29.92 in1013.2 mb 0.00 in0.0 mm 0.00 in0.0 mm 0.00 in0.0 mm
10:05 AM 66.9°F19.4°C 55.4°F13.0°C 67% 5.8 mph WSW9.3 kmh WSW 8.5 mph13.7 kmh 29.92 in1013.2 mb 0.00 in0.0 mm 0.00 in0.0 mm 0.00 in0.0 mm
10:10 AM 64.9°F18.3°C 55.4°F13.0°C 68% 4.9 mph W7.9 kmh W 8.1 mph13.0 kmh 29.92 in1013.2 mb 0.00 in0.0 mm 0.00 in0.0 mm 0.00 in0.0 mm
10:15 AM 67.8°F19.9°C 55.4°F13.0°C 65% 4.1 mph WNW6.6 kmh WNW 8.1 mph13.0 kmh 29.92 in1013.2 mb 0.00 in0.0 mm 0.00 in0.0 mm 0.00 in0.0 mm
10:20 AM 68.9°F20.5°C 57.2°F14.0°C 64% 4.1 mph WSW6.6 kmh WSW 8.5 mph13.7 kmh 29.92 in1013.2 mb 0.00 in0.0 mm 0.00 in0.0 mm 0.00 in0.0 mm
10:25 AM 69.4°F20.8°C 55.4°F13.0°C 63% 5.0 mph WSW8.0 kmh WSW 8.5 mph13.7 kmh 29.92 in1013.2 mb 0.00 in0.0 mm 0.00 in0.0 mm 0.00 in0.0 mm
10:30 AM 66.0°F18.9°C 53.6°F12.0°C 64% 5.3 mph W8.5 kmh W 8.5 mph13.7 kmh 29.92 in1013.2 mb 0.00 in0.0 mm 0.00 in0.0 mm 0.00 in0.0 mm
10:35 AM 68.2°F20.1°C 55.4°F13.0°C 65% 5.4 mph W8.7 kmh W 8.5 mph13.7 kmh 29.92 in1013.2 mb 0.00 in0.0 mm 0.00 in0.0 mm 0.00 in0.0 mm
10:40 AM 70.3°F21.3°C 57.2°F14.0°C 62% 5.0 mph W8.0 kmh W 8.5 mph13.7 kmh 29.95 in1014.2 mb 0.00 in0.0 mm 0.00 in0.0 mm 0.00 in0.0 mm
10:45 AM 67.6°F19.8°C 53.6°F12.0°C 62% 4.0 mph W6.4 kmh W 7.2 mph11.6 kmh 29.95 in1014.2 mb 0.00 in0.0 mm 0.00 in0.0 mm 0.00 in0.0 mm
10:50 AM 66.2°F19.0°C 53.6°F12.0°C 64% 4.8 mph W7.7 kmh W 10.1 mph16.3 kmh 29.95 in1014.2 mb 0.00 in0.0 mm 0.00 in0.0 mm 0.00 in0.0 mm
10:55 AM 65.3°F18.5°C 53.6°F12.0°C 65% 5.9 mph W9.5 kmh W 10.1 mph16.3 kmh 29.95 in1014.2 mb 0.00 in0.0 mm 0.00 in0.0 mm 0.00 in0.0 mm
11:00 AM 69.8°F21.0°C 55.4°F13.0°C 61% 4.9 mph W7.9 kmh W 8.5 mph13.7 kmh 29.95 in1014.2 mb 0.00 in0.0 mm 0.00 in0.0 mm 0.00 in0.0 mm
11:05 AM 70.9°F21.6°C 57.2°F14.0°C 61% 4.4 mph WSW7.1 kmh WSW 6.5 mph10.5 kmh 29.95 in1014.2 mb 0.00 in0.0 mm 0.00 in0.0 mm 0.00 in0.0 mm
11:10 AM 70.7°F21.5°C 57.2°F14.0°C 61% 4.8 mph WSW7.7 kmh WSW 7.6 mph12.2 kmh 29.95 in1014.2 mb 0.00 in0.0 mm 0.00 in0.0 mm 0.00 in0.0 mm
11:15 AM 69.4°F20.8°C 55.4°F13.0°C 60% 3.9 mph WSW6.3 kmh WSW 7.6 mph12.2 kmh 29.95 in1014.2 mb 0.00 in0.0 mm 0.00 in0.0 mm 0.00 in0.0 mm
11:20 AM 70.2°F21.2°C 55.4°F13.0°C 59% 3.8 mph WSW6.1 kmh WSW 7.6 mph12.2 kmh 29.95 in1014.2 mb 0.00 in0.0 mm 0.00 in0.0 mm 0.00 in0.0 mm
11:25 AM 73.0°F22.8°C 57.2°F14.0°C 58% 3.3 mph WSW5.3 kmh WSW 5.6 mph9.0 kmh 29.92 in1013.2 mb 0.00 in0.0 mm 0.00 in0.0 mm 0.00 in0.0 mm
11:30 AM 73.8°F23.2°C 57.2°F14.0°C 57% 4.1 mph WSW6.6 kmh WSW 7.4 mph11.9 kmh 29.92 in1013.2 mb 0.00 in0.0 mm 0.00 in0.0 mm 0.00 in0.0 mm
11:35 AM 73.8°F23.2°C 57.2°F14.0°C 55% 5.3 mph WSW8.5 kmh WSW 8.5 mph13.7 kmh 29.92 in1013.2 mb 0.00 in0.0 mm 0.00 in0.0 mm 0.00 in0.0 mm
11:40 AM 73.6°F23.1°C 55.4°F13.0°C 55% 5.4 mph NW8.7 kmh NW 8.5 mph13.7 kmh 29.92 in1013.2 mb 0.00 in0.0 mm 0.00 in0.0 mm 0.00 in0.0 mm
11:45 AM 70.5°F21.4°C 53.6°F12.0°C 55% 4.1 mph N6.6 kmh N 6.3 mph10.1 kmh 29.92 in1013.2 mb 0.00 in0.0 mm 0.00 in0.0 mm 0.00 in0.0 mm
11:50 AM 70.0°F21.1°C 53.6°F12.0°C 57% 3.5 mph NW5.6 kmh NW 6.3 mph10.1 kmh 29.92 in1013.2 mb 0.00 in0.0 mm 0.00 in0.0 mm 0.00 in0.0 mm
11:55 AM 70.7°F21.5°C 55.4°F13.0°C 59% 3.8 mph W6.1 kmh W 6.3 mph10.1 kmh 29.92 in1013.2 mb 0.00 in0.0 mm 0.00 in0.0 mm 0.00 in0.0 mm
12:00 PM 70.3°F21.3°C 55.4°F13.0°C 59% 4.3 mph WSW6.9 kmh WSW 7.2 mph11.6 kmh 29.92 in1013.2 mb 0.00 in0.0 mm 0.00 in0.0 mm 0.00 in0.0 mm
12:05 PM 68.5°F20.3°C 53.6°F12.0°C 57% 5.3 mph WSW8.5 kmh WSW 8.1 mph13.0 kmh 29.92 in1013.2 mb 0.00 in0.0 mm 0.00 in0.0 mm 0.00 in0.0 mm
12:10 PM 67.3°F19.6°C 53.6°F12.0°C 59% 5.3 mph W8.5 kmh W 8.1 mph13.0 kmh 29.95 in1014.2 mb 0.00 in0.0 mm 0.00 in0.0 mm 0.00 in0.0 mm
12:15 PM 66.9°F19.4°C 53.6°F12.0°C 60% 4.0 mph W6.4 kmh W 7.8 mph12.6 kmh 29.95 in1014.2 mb 0.00 in0.0 mm 0.00 in0.0 mm 0.00 in0.0 mm
12:20 PM 66.7°F19.3°C 53.6°F12.0°C 61% 3.4 mph W5.5 kmh W 7.8 mph12.6 kmh 29.95 in1014.2 mb 0.00 in0.0 mm 0.00 in0.0 mm 0.00 in0.0 mm
12:25 PM 66.9°F19.4°C 53.6°F12.0°C 63% 4.5 mph WSW7.2 kmh WSW 6.3 mph10.1 kmh 29.95 in1014.2 mb 0.00 in0.0 mm 0.00 in0.0 mm 0.00 in0.0 mm
12:30 PM 66.2°F19.0°C 51.8°F11.0°C 61% 5.3 mph WSW8.5 kmh WSW 7.8 mph12.6 kmh 29.95 in1014.2 mb 0.00 in0.0 mm 0.00 in0.0 mm 0.00 in0.0 mm
12:35 PM 66.6°F19.2°C 53.6°F12.0°C 61% 4.7 mph W7.6 kmh W 7.8 mph12.6 kmh 29.95 in1014.2 mb 0.00 in0.0 mm 0.00 in0.0 mm 0.00 in0.0 mm
12:40 PM 68.7°F20.4°C 53.6°F12.0°C 59% 4.8 mph WSW7.7 kmh WSW 8.7 mph14.0 kmh 29.92 in1013.2 mb 0.00 in0.0 mm 0.00 in0.0 mm 0.00 in0.0 mm
12:45 PM 70.9°F21.6°C 55.4°F13.0°C 58% 5.0 mph WSW8.0 kmh WSW 8.7 mph14.0 kmh 29.92 in1013.2 mb 0.00 in0.0 mm 0.00 in0.0 mm 0.00 in0.0 mm
12:50 PM 69.1°F20.6°C 53.6°F12.0°C 56% 5.0 mph WSW8.0 kmh WSW 8.1 mph13.0 kmh 29.92 in1013.2 mb 0.00 in0.0 mm 0.00 in0.0 mm 0.00 in0.0 mm
12:55 PM 68.7°F20.4°C 51.8°F11.0°C 56% 5.0 mph WSW8.0 kmh WSW 8.1 mph13.0 kmh 29.92 in1013.2 mb 0.00 in0.0 mm 0.00 in0.0 mm 0.00 in0.0 mm
01:00 PM 71.8°F22.1°C 55.4°F13.0°C 54% 4.1 mph WSW6.6 kmh WSW 6.5 mph10.5 kmh 29.92 in1013.2 mb 0.00 in0.0 mm 0.00 in0.0 mm 0.00 in0.0 mm
01:05 PM 70.3°F21.3°C 53.6°F12.0°C 55% 3.5 mph WSW5.6 kmh WSW 6.0 mph9.7 kmh 29.92 in1013.2 mb 0.00 in0.0 mm 0.00 in0.0 mm 0.00 in0.0 mm
01:10 PM 68.4°F20.2°C 51.8°F11.0°C 55% 3.3 mph WSW5.3 kmh WSW 6.0 mph9.7 kmh 29.92 in1013.2 mb 0.00 in0.0 mm 0.00 in0.0 mm 0.00 in0.0 mm
01:15 PM 67.8°F19.9°C 53.6°F12.0°C 58% 3.3 mph WSW5.3 kmh WSW 6.5 mph10.5 kmh 29.92 in1013.2 mb 0.00 in0.0 mm 0.00 in0.0 mm 0.00 in0.0 mm
01:20 PM 66.0°F18.9°C 51.8°F11.0°C 60% 3.1 mph WSW5.0 kmh WSW 6.5 mph10.5 kmh 29.92 in1013.2 mb 0.00 in0.0 mm 0.00 in0.0 mm 0.00 in0.0 mm
01:25 PM 65.3°F18.5°C 51.8°F11.0°C 62% 3.4 mph W5.5 kmh W 6.5 mph10.5 kmh 29.92 in1013.2 mb 0.00 in0.0 mm 0.00 in0.0 mm 0.00 in0.0 mm
01:30 PM 65.1°F18.4°C 51.8°F11.0°C 63% 2.3 mph WNW3.7 kmh WNW 6.5 mph10.5 kmh 29.92 in1013.2 mb 0.00 in0.0 mm 0.00 in0.0 mm 0.00 in0.0 mm
01:35 PM 67.5°F19.7°C 53.6°F12.0°C 62% 0.9 mph WNW1.4 kmh WNW 1.6 mph2.6 kmh 29.92 in1013.2 mb 0.00 in0.0 mm 0.00 in0.0 mm 0.00 in0.0 mm
01:40 PM 66.6°F19.2°C 53.6°F12.0°C 62% 3.2 mph NW5.1 kmh NW 8.1 mph13.0 kmh 29.92 in1013.2 mb 0.00 in0.0 mm 0.00 in0.0 mm 0.00 in0.0 mm
01:45 PM 67.8°F19.9°C 53.6°F12.0°C 61% 5.2 mph NW8.4 kmh NW 8.1 mph13.0 kmh 29.92 in1013.2 mb 0.00 in0.0 mm 0.00 in0.0 mm 0.00 in0.0 mm
01:50 PM 68.7°F20.4°C 53.6°F12.0°C 59% 5.3 mph W8.5 kmh W 9.8 mph15.8 kmh 29.92 in1013.2 mb 0.00 in0.0 mm 0.00 in0.0 mm 0.00 in0.0 mm
01:55 PM 68.2°F20.1°C 53.6°F12.0°C 58% 6.1 mph WSW9.8 kmh WSW 11.9 mph19.2 kmh 29.92 in1013.2 mb 0.00 in0.0 mm 0.00 in0.0 mm 0.00 in0.0 mm
02:00 PM 69.4°F20.8°C 53.6°F12.0°C 57% 6.1 mph NW9.8 kmh NW 11.9 mph19.2 kmh 29.92 in1013.2 mb 0.00 in0.0 mm 0.00 in0.0 mm 0.00 in0.0 mm
02:05 PM 70.2°F21.2°C 53.6°F12.0°C 56% 5.0 mph NNW8.0 kmh NNW 8.5 mph13.7 kmh 29.92 in1013.2 mb 0.00 in0.0 mm 0.00 in0.0 mm 0.00 in0.0 mm
02:10 PM 68.7°F20.4°C 51.8°F11.0°C 55% 5.0 mph NW8.0 kmh NW 10.1 mph16.3 kmh 29.92 in1013.2 mb 0.00 in0.0 mm 0.00 in0.0 mm 0.00 in0.0 mm
02:15 PM 68.2°F20.1°C 51.8°F11.0°C 56% 4.9 mph W7.9 kmh W 10.1 mph16.3 kmh 29.92 in1013.2 mb 0.00 in0.0 mm 0.00 in0.0 mm 0.00 in0.0 mm
02:20 PM 67.8°F19.9°C 51.8°F11.0°C 57% 4.7 mph WSW7.6 kmh WSW 8.7 mph14.0 kmh 29.92 in1013.2 mb 0.00 in0.0 mm 0.00 in0.0 mm 0.00 in0.0 mm
02:25 PM 67.6°F19.8°C 50.0°F10.0°C 55% 5.6 mph SW9.0 kmh SW 8.7 mph14.0 kmh 29.92 in1013.2 mb 0.00 in0.0 mm 0.00 in0.0 mm 0.00 in0.0 mm
02:30 PM 67.8°F19.9°C 51.8°F11.0°C 55% 5.1 mph WSW8.2 kmh WSW 7.6 mph12.2 kmh 29.92 in1013.2 mb 0.00 in0.0 mm 0.00 in0.0 mm 0.00 in0.0 mm
02:35 PM 68.0°F20.0°C 51.8°F11.0°C 55% 4.2 mph WSW6.8 kmh WSW 6.5 mph10.5 kmh 29.92 in1013.2 mb 0.00 in0.0 mm 0.00 in0.0 mm 0.00 in0.0 mm
02:40 PM 68.7°F20.4°C 51.8°F11.0°C 54% 5.4 mph WSW8.7 kmh WSW 9.8 mph15.8 kmh 29.92 in1013.2 mb 0.00 in0.0 mm 0.00 in0.0 mm 0.00 in0.0 mm
02:45 PM 68.0°F20.0°C 51.8°F11.0°C 54% 5.8 mph WSW9.3 kmh WSW 9.8 mph15.8 kmh 29.92 in1013.2 mb 0.00 in0.0 mm 0.00 in0.0 mm 0.00 in0.0 mm
02:50 PM 67.5°F19.7°C 50.0°F10.0°C 54% 6.8 mph WNW10.9 kmh WNW 13.0 mph20.9 kmh 29.92 in1013.2 mb 0.00 in0.0 mm 0.00 in0.0 mm 0.00 in0.0 mm
02:55 PM 66.9°F19.4°C 50.0°F10.0°C 53% 7.8 mph WNW12.6 kmh WNW 13.0 mph20.9 kmh 29.92 in1013.2 mb 0.00 in0.0 mm 0.00 in0.0 mm 0.00 in0.0 mm
03:00 PM 66.2°F19.0°C 48.2°F9.0°C 53% 7.2 mph WSW11.6 kmh WSW 10.1 mph16.3 kmh 29.92 in1013.2 mb 0.00 in0.0 mm 0.00 in0.0 mm 0.00 in0.0 mm
03:05 PM 65.8°F18.8°C 48.2°F9.0°C 54% 6.4 mph WSW10.3 kmh WSW 8.5 mph13.7 kmh 29.92 in1013.2 mb 0.00 in0.0 mm 0.00 in0.0 mm 0.00 in0.0 mm
03:10 PM 65.7°F18.7°C 48.2°F9.0°C 53% 5.4 mph WSW8.7 kmh WSW 8.9 mph14.3 kmh 29.92 in1013.2 mb 0.00 in0.0 mm 0.00 in0.0 mm 0.00 in0.0 mm
03:15 PM 66.0°F18.9°C 48.2°F9.0°C 53% 5.8 mph WSW9.3 kmh WSW 10.3 mph16.6 kmh 29.92 in1013.2 mb 0.00 in0.0 mm 0.00 in0.0 mm 0.00 in0.0 mm
03:20 PM 65.7°F18.7°C 48.2°F9.0°C 53% 5.7 mph W9.2 kmh W 10.3 mph16.6 kmh 29.92 in1013.2 mb 0.00 in0.0 mm 0.00 in0.0 mm 0.00 in0.0 mm
03:25 PM 65.3°F18.5°C 48.2°F9.0°C 53% 6.4 mph W10.3 kmh W 10.1 mph16.3 kmh 29.92 in1013.2 mb 0.00 in0.0 mm 0.00 in0.0 mm 0.00 in0.0 mm
03:30 PM 65.1°F18.4°C 48.2°F9.0°C 53% 6.1 mph WSW9.8 kmh WSW 10.1 mph16.3 kmh 29.92 in1013.2 mb 0.00 in0.0 mm 0.00 in0.0 mm 0.00 in0.0 mm
03:35 PM 66.2°F19.0°C 48.2°F9.0°C 52% 4.7 mph WNW7.6 kmh WNW 8.1 mph13.0 kmh 29.92 in1013.2 mb 0.00 in0.0 mm 0.00 in0.0 mm 0.00 in0.0 mm
03:40 PM 66.2°F19.0°C 48.2°F9.0°C 53% 3.9 mph NW6.3 kmh NW 7.4 mph11.9 kmh 29.92 in1013.2 mb 0.00 in0.0 mm 0.00 in0.0 mm 0.00 in0.0 mm
03:45 PM 65.8°F18.8°C 48.2°F9.0°C 54% 3.7 mph NW6.0 kmh NW 7.2 mph11.6 kmh 29.92 in1013.2 mb 0.00 in0.0 mm 0.00 in0.0 mm 0.00 in0.0 mm
03:50 PM 65.5°F18.6°C 48.2°F9.0°C 54% 4.1 mph W6.6 kmh W 7.6 mph12.2 kmh 29.92 in1013.2 mb 0.00 in0.0 mm 0.00 in0.0 mm 0.00 in0.0 mm
03:55 PM 65.8°F18.8°C 48.2°F9.0°C 54% 3.9 mph W6.3 kmh W 7.6 mph12.2 kmh 29.92 in1013.2 mb 0.00 in0.0 mm 0.00 in0.0 mm 0.00 in0.0 mm
04:00 PM 66.0°F18.9°C 50.0°F10.0°C 55% 3.1 mph W5.0 kmh W 6.5 mph10.5 kmh 29.92 in1013.2 mb 0.00 in0.0 mm 0.00 in0.0 mm 0.00 in0.0 mm
04:05 PM 66.4°F19.1°C 50.0°F10.0°C 54% 4.6 mph W7.4 kmh W 7.2 mph11.6 kmh 29.92 in1013.2 mb 0.00 in0.0 mm 0.00 in0.0 mm 0.00 in0.0 mm
04:10 PM 66.6°F19.2°C 50.0°F10.0°C 53% 5.9 mph W9.5 kmh W 8.5 mph13.7 kmh 29.92 in1013.2 mb 0.00 in0.0 mm 0.00 in0.0 mm 0.00 in0.0 mm
04:15 PM 66.4°F19.1°C 48.2°F9.0°C 53% 6.4 mph WSW10.3 kmh WSW 8.7 mph14.0 kmh 29.92 in1013.2 mb 0.00 in0.0 mm 0.00 in0.0 mm 0.00 in0.0 mm
04:20 PM 66.0°F18.9°C 48.2°F9.0°C 53% 7.7 mph WSW12.4 kmh WSW 12.8 mph20.6 kmh 29.92 in1013.2 mb 0.00 in0.0 mm 0.00 in0.0 mm 0.00 in0.0 mm
04:25 PM 66.2°F19.0°C 48.2°F9.0°C 52% 7.3 mph WSW11.7 kmh WSW 12.8 mph20.6 kmh 29.92 in1013.2 mb 0.00 in0.0 mm 0.00 in0.0 mm 0.00 in0.0 mm
04:30 PM 65.8°F18.8°C 48.2°F9.0°C 52% 8.3 mph W13.4 kmh W 16.6 mph26.7 kmh 29.92 in1013.2 mb 0.00 in0.0 mm 0.00 in0.0 mm 0.00 in0.0 mm
04:35 PM 65.8°F18.8°C 48.2°F9.0°C 52% 9.7 mph W15.6 kmh W 16.6 mph26.7 kmh 29.92 in1013.2 mb 0.00 in0.0 mm 0.00 in0.0 mm 0.00 in0.0 mm
04:40 PM 65.7°F18.7°C 48.2°F9.0°C 52% 8.1 mph WSW13.0 kmh WSW 12.5 mph20.1 kmh 29.92 in1013.2 mb 0.00 in0.0 mm 0.00 in0.0 mm 0.00 in0.0 mm
04:45 PM 65.5°F18.6°C 48.2°F9.0°C 52% 7.7 mph WSW12.4 kmh WSW 12.5 mph20.1 kmh 29.92 in1013.2 mb 0.00 in0.0 mm 0.00 in0.0 mm 0.00 in0.0 mm
04:50 PM 65.3°F18.5°C 48.2°F9.0°C 52% 8.0 mph SW12.9 kmh SW 12.5 mph20.1 kmh 29.92 in1013.2 mb 0.00 in0.0 mm 0.00 in0.0 mm 0.00 in0.0 mm
04:55 PM 64.9°F18.3°C 46.4°F8.0°C 51% 8.6 mph WSW13.8 kmh WSW 12.5 mph20.1 kmh 29.92 in1013.2 mb 0.00 in0.0 mm 0.00 in0.0 mm 0.00 in0.0 mm
05:00 PM 64.4°F18.0°C 46.4°F8.0°C 51% 8.2 mph WSW13.2 kmh WSW 12.8 mph20.6 kmh 29.92 in1013.2 mb 0.00 in0.0 mm 0.00 in0.0 mm 0.00 in0.0 mm
05:05 PM 64.2°F17.9°C 46.4°F8.0°C 51% 7.5 mph WSW12.1 kmh WSW 12.8 mph20.6 kmh 29.92 in1013.2 mb 0.00 in0.0 mm 0.00 in0.0 mm 0.00 in0.0 mm
05:10 PM 64.4°F18.0°C 46.4°F8.0°C 51% 6.1 mph W9.8 kmh W 10.5 mph16.9 kmh 29.92 in1013.2 mb 0.00 in0.0 mm 0.00 in0.0 mm 0.00 in0.0 mm
05:15 PM 64.4°F18.0°C 46.4°F8.0°C 51% 5.4 mph W8.7 kmh W 8.7 mph14.0 kmh 29.92 in1013.2 mb 0.00 in0.0 mm 0.00 in0.0 mm 0.00 in0.0 mm
05:20 PM 64.4°F18.0°C 46.4°F8.0°C 51% 6.3 mph W10.1 kmh W 11.0 mph17.7 kmh 29.92 in1013.2 mb 0.00 in0.0 mm 0.00 in0.0 mm 0.00 in0.0 mm
05:25 PM 64.8°F18.2°C 46.4°F8.0°C 51% 5.7 mph W9.2 kmh W 11.0 mph17.7 kmh 29.92 in1013.2 mb 0.00 in0.0 mm 0.00 in0.0 mm 0.00 in0.0 mm
05:30 PM 64.6°F18.1°C 46.4°F8.0°C 51% 6.6 mph W10.6 kmh W 12.8 mph20.6 kmh 29.92 in1013.2 mb 0.00 in0.0 mm 0.00 in0.0 mm 0.00 in0.0 mm
05:35 PM 64.2°F17.9°C 46.4°F8.0°C 51% 8.3 mph W13.4 kmh W 12.8 mph20.6 kmh 29.92 in1013.2 mb 0.00 in0.0 mm 0.00 in0.0 mm 0.00 in0.0 mm
05:40 PM 63.9°F17.7°C 46.4°F8.0°C 51% 8.1 mph WSW13.0 kmh WSW 12.5 mph20.1 kmh 29.95 in1014.2 mb 0.00 in0.0 mm 0.00 in0.0 mm 0.00 in0.0 mm
05:45 PM 63.5°F17.5°C 46.4°F8.0°C 51% 7.9 mph WSW12.7 kmh WSW 11.0 mph17.7 kmh 29.95 in1014.2 mb 0.00 in0.0 mm 0.00 in0.0 mm 0.00 in0.0 mm
05:50 PM 63.3°F17.4°C 44.6°F7.0°C 51% 7.1 mph WSW11.4 kmh WSW 11.0 mph17.7 kmh 29.95 in1014.2 mb 0.00 in0.0 mm 0.00 in0.0 mm 0.00 in0.0 mm
05:55 PM 63.1°F17.3°C 44.6°F7.0°C 51% 6.7 mph WSW10.8 kmh WSW 9.6 mph15.4 kmh 29.95 in1014.2 mb 0.00 in0.0 mm 0.00 in0.0 mm 0.00 in0.0 mm
06:00 PM 63.0°F17.2°C 44.6°F7.0°C 51% 6.5 mph WSW10.5 kmh WSW 9.6 mph15.4 kmh 29.95 in1014.2 mb 0.00 in0.0 mm 0.00 in0.0 mm 0.00 in0.0 mm
06:05 PM 62.6°F17.0°C 44.6°F7.0°C 51% 6.7 mph WSW10.8 kmh WSW 10.5 mph16.9 kmh 29.95 in1014.2 mb 0.00 in0.0 mm 0.00 in0.0 mm 0.00 in0.0 mm
06:10 PM 62.6°F17.0°C 44.6°F7.0°C 51% 7.6 mph W12.2 kmh W 10.7 mph17.2 kmh 29.95 in1014.2 mb 0.00 in0.0 mm 0.00 in0.0 mm 0.00 in0.0 mm
06:15 PM 62.2°F16.8°C 44.6°F7.0°C 52% 6.4 mph W10.3 kmh W 10.7 mph17.2 kmh 29.95 in1014.2 mb 0.00 in0.0 mm 0.00 in0.0 mm 0.00 in0.0 mm
06:20 PM 62.1°F16.7°C 44.6°F7.0°C 52% 5.7 mph WSW9.2 kmh WSW 8.7 mph14.0 kmh 29.95 in1014.2 mb 0.00 in0.0 mm 0.00 in0.0 mm 0.00 in0.0 mm
06:25 PM 61.9°F16.6°C 44.6°F7.0°C 52% 6.8 mph WSW10.9 kmh WSW 8.7 mph14.0 kmh 29.95 in1014.2 mb 0.00 in0.0 mm 0.00 in0.0 mm 0.00 in0.0 mm
06:30 PM 61.5°F16.4°C 44.6°F7.0°C 52% 6.5 mph WSW10.5 kmh WSW 8.1 mph13.0 kmh 29.95 in1014.2 mb 0.00 in0.0 mm 0.00 in0.0 mm 0.00 in0.0 mm
06:35 PM 61.3°F16.3°C 44.6°F7.0°C 52% 5.0 mph W8.0 kmh W 8.1 mph13.0 kmh 29.95 in1014.2 mb 0.00 in0.0 mm 0.00 in0.0 mm 0.00 in0.0 mm
06:40 PM 61.2°F16.2°C 44.6°F7.0°C 52% 4.8 mph W7.7 kmh W 6.0 mph9.7 kmh 29.95 in1014.2 mb 0.00 in0.0 mm 0.00 in0.0 mm 0.00 in0.0 mm
06:45 PM 61.0°F16.1°C 42.8°F6.0°C 52% 5.2 mph WSW8.4 kmh WSW 7.2 mph11.6 kmh 29.95 in1014.2 mb 0.00 in0.0 mm 0.00 in0.0 mm 0.00 in0.0 mm
06:50 PM 60.6°F15.9°C 42.8°F6.0°C 52% 5.6 mph W9.0 kmh W 8.1 mph13.0 kmh 29.95 in1014.2 mb 0.00 in0.0 mm 0.00 in0.0 mm 0.00 in0.0 mm
06:55 PM 60.4°F15.8°C 42.8°F6.0°C 52% 6.1 mph W9.8 kmh W 8.1 mph13.0 kmh 29.95 in1014.2 mb 0.00 in0.0 mm 0.00 in0.0 mm 0.00 in0.0 mm
07:00 PM 60.1°F15.6°C 42.8°F6.0°C 53% 4.9 mph W7.9 kmh W 7.4 mph11.9 kmh 29.95 in1014.2 mb 0.00 in0.0 mm 0.00 in0.0 mm 0.00 in0.0 mm
07:05 PM 59.9°F15.5°C 42.8°F6.0°C 53% 3.8 mph WSW6.1 kmh WSW 5.6 mph9.0 kmh 29.95 in1014.2 mb 0.00 in0.0 mm 0.00 in0.0 mm 0.00 in0.0 mm
07:10 PM 59.7°F15.4°C 42.8°F6.0°C 53% 4.2 mph WSW6.8 kmh WSW 6.7 mph10.8 kmh 29.95 in1014.2 mb 0.00 in0.0 mm 0.00 in0.0 mm 0.00 in0.0 mm
07:15 PM 59.4°F15.2°C 42.8°F6.0°C 53% 4.0 mph WSW6.4 kmh WSW 6.7 mph10.8 kmh 29.95 in1014.2 mb 0.00 in0.0 mm 0.00 in0.0 mm 0.00 in0.0 mm
07:20 PM 59.2°F15.1°C 42.8°F6.0°C 53% 3.9 mph WSW6.3 kmh WSW 5.6 mph9.0 kmh 29.95 in1014.2 mb 0.00 in0.0 mm 0.00 in0.0 mm 0.00 in0.0 mm
07:25 PM 58.8°F14.9°C 42.8°F6.0°C 53% 3.8 mph WSW6.1 kmh WSW 5.6 mph9.0 kmh 29.95 in1014.2 mb 0.00 in0.0 mm 0.00 in0.0 mm 0.00 in0.0 mm
07:30 PM 58.5°F14.7°C 42.8°F6.0°C 54% 3.8 mph WSW6.1 kmh WSW 5.4 mph8.7 kmh 29.95 in1014.2 mb 0.00 in0.0 mm 0.00 in0.0 mm 0.00 in0.0 mm
07:35 PM 57.9°F14.4°C 42.8°F6.0°C 54% 3.5 mph W5.6 kmh W 5.6 mph9.0 kmh 29.95 in1014.2 mb 0.00 in0.0 mm 0.00 in0.0 mm 0.00 in0.0 mm
07:40 PM 57.6°F14.2°C 42.8°F6.0°C 55% 2.1 mph WSW3.4 kmh WSW 5.6 mph9.0 kmh 29.95 in1014.2 mb 0.00 in0.0 mm 0.00 in0.0 mm 0.00 in0.0 mm
07:45 PM 57.0°F13.9°C 42.8°F6.0°C 56% 1.4 mph WSW2.3 kmh WSW 4.7 mph7.6 kmh 29.95 in1014.2 mb 0.00 in0.0 mm 0.00 in0.0 mm 0.00 in0.0 mm
07:50 PM 56.5°F13.6°C 42.8°F6.0°C 57% 1.5 mph W2.4 kmh W 3.1 mph5.0 kmh 29.95 in1014.2 mb 0.00 in0.0 mm 0.00 in0.0 mm 0.00 in0.0 mm
07:55 PM 56.1°F13.4°C 41.0°F5.0°C 57% 1.0 mph W1.6 kmh W 3.1 mph5.0 kmh 29.95 in1014.2 mb 0.00 in0.0 mm 0.00 in0.0 mm 0.00 in0.0 mm
08:00 PM 55.8°F13.2°C 42.8°F6.0°C 58% 0.6 mph W1.0 kmh W 2.0 mph3.2 kmh 29.95 in1014.2 mb 0.00 in0.0 mm 0.00 in0.0 mm 0.00 in0.0 mm
08:05 PM 55.6°F13.1°C 42.8°F6.0°C 59% 1.3 mph W2.1 kmh W 3.8 mph6.1 kmh 29.95 in1014.2 mb 0.00 in0.0 mm 0.00 in0.0 mm 0.00 in0.0 mm
08:10 PM 55.4°F13.0°C 42.8°F6.0°C 59% 1.0 mph W1.6 kmh W 3.8 mph6.1 kmh 29.95 in1014.2 mb 0.00 in0.0 mm 0.00 in0.0 mm 0.00 in0.0 mm
08:15 PM 55.4°F13.0°C 42.8°F6.0°C 60% 0.2 mph WSW0.3 kmh WSW 2.0 mph3.2 kmh 29.95 in1014.2 mb 0.00 in0.0 mm 0.00 in0.0 mm 0.00 in0.0 mm
08:20 PM 54.9°F12.7°C 42.8°F6.0°C 60% 0.1 mph WSW0.2 kmh WSW 1.1 mph1.8 kmh 29.95 in1014.2 mb 0.00 in0.0 mm 0.00 in0.0 mm 0.00 in0.0 mm
08:25 PM 54.5°F12.5°C 42.8°F6.0°C 61% Calm Calm -- 29.95 in1014.2 mb 0.00 in0.0 mm 0.00 in0.0 mm 0.00 in0.0 mm
08:30 PM 54.3°F12.4°C 41.0°F5.0°C 61% Calm Calm -- 29.95 in1014.2 mb 0.00 in0.0 mm 0.00 in0.0 mm 0.00 in0.0 mm
08:35 PM 54.0°F12.2°C 41.0°F5.0°C 61% Calm Calm -- 29.95 in1014.2 mb 0.00 in0.0 mm 0.00 in0.0 mm 0.00 in0.0 mm
08:40 PM 53.8°F12.1°C 41.0°F5.0°C 62% 0.1 mph WNW0.2 kmh WNW 0.9 mph1.4 kmh 29.95 in1014.2 mb 0.00 in0.0 mm 0.00 in0.0 mm 0.00 in0.0 mm
08:45 PM 53.6°F12.0°C 41.0°F5.0°C 62% 0.4 mph W0.6 kmh W 1.3 mph2.1 kmh 29.95 in1014.2 mb 0.00 in0.0 mm 0.00 in0.0 mm 0.00 in0.0 mm
08:50 PM 53.2°F11.8°C 41.0°F5.0°C 62% 0.9 mph W1.4 kmh W 2.0 mph3.2 kmh 29.95 in1014.2 mb 0.00 in0.0 mm 0.00 in0.0 mm 0.00 in0.0 mm
08:55 PM 53.1°F11.7°C 41.0°F5.0°C 63% 1.5 mph WNW2.4 kmh WNW 2.7 mph4.3 kmh 29.95 in1014.2 mb 0.00 in0.0 mm 0.00 in0.0 mm 0.00 in0.0 mm
09:00 PM 53.2°F11.8°C 41.0°F5.0°C 62% 1.8 mph W2.9 kmh W 2.7 mph4.3 kmh 29.95 in1014.2 mb 0.00 in0.0 mm 0.00 in0.0 mm 0.00 in0.0 mm
09:05 PM 53.1°F11.7°C 41.0°F5.0°C 62% 1.0 mph WSW1.6 kmh WSW 2.5 mph4.0 kmh 29.95 in1014.2 mb 0.00 in0.0 mm 0.00 in0.0 mm 0.00 in0.0 mm
09:10 PM 52.5°F11.4°C 39.2°F4.0°C 62% 0.5 mph WSW0.8 kmh WSW 2.5 mph4.0 kmh 29.95 in1014.2 mb 0.00 in0.0 mm 0.00 in0.0 mm 0.00 in0.0 mm
09:15 PM 52.5°F11.4°C 41.0°F5.0°C 63% 0.1 mph WSW0.2 kmh WSW 1.1 mph1.8 kmh 29.95 in1014.2 mb 0.00 in0.0 mm 0.00 in0.0 mm 0.00 in0.0 mm
09:20 PM 52.3°F11.3°C 41.0°F5.0°C 63% Calm Calm -- 29.95 in1014.2 mb 0.00 in0.0 mm 0.00 in0.0 mm 0.00 in0.0 mm
09:25 PM 52.2°F11.2°C 41.0°F5.0°C 63% Calm Calm -- 29.95 in1014.2 mb 0.00 in0.0 mm 0.00 in0.0 mm 0.00 in0.0 mm
09:30 PM 52.0°F11.1°C 41.0°F5.0°C 64% Calm Calm -- 29.95 in1014.2 mb 0.00 in0.0 mm 0.00 in0.0 mm 0.00 in0.0 mm
09:35 PM 51.8°F11.0°C 41.0°F5.0°C 64% Calm Calm -- 29.95 in1014.2 mb 0.00 in0.0 mm 0.00 in0.0 mm 0.00 in0.0 mm
09:40 PM 51.6°F10.9°C 41.0°F5.0°C 64% Calm Calm -- 29.95 in1014.2 mb 0.00 in0.0 mm 0.00 in0.0 mm 0.00 in0.0 mm
09:45 PM 51.4°F10.8°C 39.2°F4.0°C 64% Calm Calm -- 29.95 in1014.2 mb 0.00 in0.0 mm 0.00 in0.0 mm 0.00 in0.0 mm
09:50 PM 51.1°F10.6°C 41.0°F5.0°C 65% Calm Calm -- 29.95 in1014.2 mb 0.00 in0.0 mm 0.00 in0.0 mm 0.00 in0.0 mm
09:55 PM 50.7°F10.4°C 39.2°F4.0°C 65% Calm Calm -- 29.95 in1014.2 mb 0.00 in0.0 mm 0.00 in0.0 mm 0.00 in0.0 mm
10:00 PM 50.7°F10.4°C 39.2°F4.0°C 65% 0.6 mph NNE1.0 kmh NNE 2.0 mph3.2 kmh 29.95 in1014.2 mb 0.00 in0.0 mm 0.00 in0.0 mm 0.00 in0.0 mm
10:05 PM 50.5°F10.3°C 39.2°F4.0°C 66% 1.2 mph NNE1.9 kmh NNE 2.5 mph4.0 kmh 29.95 in1014.2 mb 0.00 in0.0 mm 0.00 in0.0 mm 0.00 in0.0 mm
10:10 PM 50.5°F10.3°C 39.2°F4.0°C 66% 1.1 mph NNE1.8 kmh NNE 2.5 mph4.0 kmh 29.95 in1014.2 mb 0.00 in0.0 mm 0.00 in0.0 mm 0.00 in0.0 mm
10:15 PM 50.4°F10.2°C 39.2°F4.0°C 66% 0.9 mph NE1.4 kmh NE 2.5 mph4.0 kmh 29.95 in1014.2 mb 0.00 in0.0 mm 0.00 in0.0 mm 0.00 in0.0 mm
10:20 PM 50.2°F10.1°C 39.2°F4.0°C 66% 0.7 mph ENE1.1 kmh ENE 2.5 mph4.0 kmh 29.95 in1014.2 mb 0.00 in0.0 mm 0.00 in0.0 mm 0.00 in0.0 mm
10:25 PM 50.0°F10.0°C 39.2°F4.0°C 67% 0.3 mph E0.5 kmh E 1.1 mph1.8 kmh 29.95 in1014.2 mb 0.00 in0.0 mm 0.00 in0.0 mm 0.00 in0.0 mm
10:30 PM 49.8°F9.9°C 39.2°F4.0°C 67% 0.2 mph SE0.3 kmh SE 1.6 mph2.6 kmh 29.95 in1014.2 mb 0.00 in0.0 mm 0.00 in0.0 mm 0.00 in0.0 mm
10:35 PM 49.6°F9.8°C 39.2°F4.0°C 67% 0.2 mph SE0.3 kmh SE 1.6 mph2.6 kmh 29.95 in1014.2 mb 0.00 in0.0 mm 0.00 in0.0 mm 0.00 in0.0 mm
10:40 PM 49.6°F9.8°C 39.2°F4.0°C 67% 0.6 mph E1.0 kmh E 2.5 mph4.0 kmh 29.95 in1014.2 mb 0.00 in0.0 mm 0.00 in0.0 mm 0.00 in0.0 mm
10:45 PM 49.3°F9.6°C 39.2°F4.0°C 67% 1.1 mph E1.8 kmh E 2.5 mph4.0 kmh 29.95 in1014.2 mb 0.00 in0.0 mm 0.00 in0.0 mm 0.00 in0.0 mm
10:50 PM 49.1°F9.5°C 39.2°F4.0°C 67% 0.8 mph E1.3 kmh E 2.5 mph4.0 kmh 29.95 in1014.2 mb 0.00 in0.0 mm 0.00 in0.0 mm 0.00 in0.0 mm
10:55 PM 49.1°F9.5°C 39.2°F4.0°C 67% 0.5 mph ENE0.8 kmh ENE 2.0 mph3.2 kmh 29.95 in1014.2 mb 0.00 in0.0 mm 0.00 in0.0 mm 0.00 in0.0 mm
11:00 PM 48.9°F9.4°C 39.2°F4.0°C 67% 0.3 mph ENE0.5 kmh ENE 1.3 mph2.1 kmh 29.95 in1014.2 mb 0.00 in0.0 mm 0.00 in0.0 mm 0.00 in0.0 mm
11:05 PM 48.9°F9.4°C 39.2°F4.0°C 67% 0.2 mph NE0.3 kmh NE 2.0 mph3.2 kmh 29.95 in1014.2 mb 0.00 in0.0 mm 0.00 in0.0 mm 0.00 in0.0 mm
11:10 PM 48.7°F9.3°C 39.2°F4.0°C 68% 1.3 mph NNE2.1 kmh NNE 2.9 mph4.7 kmh 29.95 in1014.2 mb 0.00 in0.0 mm 0.00 in0.0 mm 0.00 in0.0 mm
11:15 PM 48.6°F9.2°C 39.2°F4.0°C 68% 2.4 mph NE3.9 kmh NE 2.9 mph4.7 kmh 29.95 in1014.2 mb 0.00 in0.0 mm 0.00 in0.0 mm 0.00 in0.0 mm
11:20 PM 48.6°F9.2°C 39.2°F4.0°C 68% 2.7 mph NE4.3 kmh NE 3.4 mph5.5 kmh 29.95 in1014.2 mb 0.00 in0.0 mm 0.00 in0.0 mm 0.00 in0.0 mm
11:25 PM 48.4°F9.1°C 39.2°F4.0°C 68% 2.6 mph NNE4.2 kmh NNE 3.4 mph5.5 kmh 29.95 in1014.2 mb 0.00 in0.0 mm 0.00 in0.0 mm 0.00 in0.0 mm
11:30 PM 48.2°F9.0°C 39.2°F4.0°C 68% 1.9 mph NNE3.1 kmh NNE 2.7 mph4.3 kmh 29.95 in1014.2 mb 0.00 in0.0 mm 0.00 in0.0 mm 0.00 in0.0 mm
11:35 PM 48.0°F8.9°C 39.2°F4.0°C 68% 1.0 mph NNE1.6 kmh NNE 2.5 mph4.0 kmh 29.95 in1014.2 mb 0.00 in0.0 mm 0.00 in0.0 mm 0.00 in0.0 mm
11:40 PM 48.0°F8.9°C 39.2°F4.0°C 68% 0.6 mph NNE1.0 kmh NNE 1.3 mph2.1 kmh 29.95 in1014.2 mb 0.00 in0.0 mm 0.00 in0.0 mm 0.00 in0.0 mm
11:45 PM 47.7°F8.7°C 37.4°F3.0°C 68% 0.3 mph NNE0.5 kmh NNE 1.1 mph1.8 kmh 29.95 in1014.2 mb 0.00 in0.0 mm 0.00 in0.0 mm 0.00 in0.0 mm
11:50 PM 47.7°F8.7°C 37.4°F3.0°C 68% Calm Calm -- 29.95 in1014.2 mb 0.00 in0.0 mm 0.00 in0.0 mm 0.00 in0.0 mm
11:55 PM 47.8°F8.8°C 39.2°F4.0°C 69% 0.4 mph NNE0.6 kmh NNE 2.5 mph4.0 kmh 29.95 in1014.2 mb 0.00 in0.0 mm 0.00 in0.0 mm 0.00 in0.0 mm